Time;durP1;ratioP1;P1;durP2;ratioP2;P2;SDS_P1;SDS_P2;PMS_P1;PMS_P2;Temp;Humidity;BMP_temperature;BMP_pressure;BME280_temperature;BME280_humidity;BME280_pressure;Samples;Min_cycle;Max_cycle;Signal;HPM_P1;HPM_P2
2022/11/10 00:01:12;;;;;;;;;;;10.50;99.90;;;;;;2603923;54;19942;31
2022/11/10 00:04:04;;;;;;;;;;;10.40;99.90;;;;;;2603932;54;20713;31
2022/11/10 00:06:55;;;;;;;;;;;10.40;99.90;;;;;;2603913;54;19934;31
2022/11/10 00:09:48;;;;;;;;;;;10.40;99.90;;;;;;2603792;54;20045;31
2022/11/10 00:12:44;;;;;;;;;;;10.40;99.90;;;;;;2603764;54;19934;31
2022/11/10 00:18:41;;;;;;;;;;;10.40;99.90;;;;;;2603784;54;20812;31
2022/11/10 00:21:35;;;;;;;;;;;10.40;99.90;;;;;;2603750;54;20000;31
2022/11/10 00:24:27;;;;;;;;;;;10.40;99.90;;;;;;2603752;54;20809;31
2022/11/10 00:27:20;;;;;;;;;;;10.40;99.90;;;;;;2603686;54;19934;31
2022/11/10 00:30:16;;;;;;;;;;;10.40;99.90;;;;;;2603808;54;20817;31
2022/11/10 00:33:09;;;;;;;;;;;10.40;99.90;;;;;;2603784;54;20772;31
2022/11/10 00:36:01;;;;;;;;;;;10.40;99.90;;;;;;2603977;54;19934;31
2022/11/10 00:38:53;;;;;;;;;;;10.40;99.90;;;;;;2603763;54;19935;31
2022/11/10 00:41:46;;;;;;;;;;;10.40;99.90;;;;;;2603669;54;20008;31
2022/11/10 00:44:39;;;;;;;;;;;10.40;99.90;;;;;;2603756;54;20802;31
2022/11/10 00:47:33;;;;;;;;;;;10.40;99.90;;;;;;2603641;54;20053;31
2022/11/10 00:50:25;;;;;;;;;;;10.40;99.90;;;;;;2603838;54;19939;31
2022/11/10 00:53:18;;;;;;;;;;;10.40;99.90;;;;;;2603754;54;19934;31
2022/11/10 00:56:10;;;;;;;;;;;10.40;99.90;;;;;;2603641;54;20770;31
2022/11/10 00:59:03;;;;;;;;;;;10.40;99.90;;;;;;2603498;54;19941;31
2022/11/10 01:01:58;;;;;;;;;;;10.40;99.90;;;;;;2603579;54;20439;31
2022/11/10 01:04:53;;;;;;;;;;;10.40;99.90;;;;;;2603743;54;20365;31
2022/11/10 01:07:46;;;;;;;;;;;10.40;99.90;;;;;;2603545;54;20806;31
2022/11/10 01:10:38;;;;;;;;;;;10.40;99.90;;;;;;2603617;54;19935;31
2022/11/10 01:13:31;;;;;;;;;;;10.40;99.90;;;;;;2603687;54;19942;31
2022/11/10 01:16:25;;;;;;;;;;;10.40;99.90;;;;;;2603589;54;19941;31
2022/11/10 01:19:17;;;;;;;;;;;10.40;99.90;;;;;;2603569;54;19942;31
2022/11/10 01:22:11;;;;;;;;;;;10.40;99.90;;;;;;2603668;54;19946;31
2022/11/10 01:25:04;;;;;;;;;;;10.40;99.90;;;;;;2603529;54;19939;31
2022/11/10 01:27:57;;;;;;;;;;;10.40;99.90;;;;;;2603644;54;20712;31
2022/11/10 01:30:49;;;;;;;;;;;10.40;99.90;;;;;;2603641;54;19989;31
2022/11/10 01:33:41;;;;;;;;;;;10.30;99.90;;;;;;2603484;54;20770;31
2022/11/10 01:36:34;;;;;;;;;;;10.40;99.90;;;;;;2603509;54;19938;31
2022/11/10 01:39:26;;;;;;;;;;;10.40;99.90;;;;;;2603635;54;19934;31
2022/11/10 01:42:26;;;;;;;;;;;10.40;99.90;;;;;;2603655;54;19934;31
2022/11/10 01:45:40;;;;;;;;;;;10.40;99.90;;;;;;2603540;54;19934;31
2022/11/10 01:51:20;;;;;;;;;;;10.40;99.90;;;;;;2603603;54;20734;31
2022/11/10 01:54:13;;;;;;;;;;;10.40;99.90;;;;;;2603433;54;19935;31
2022/11/10 01:57:06;;;;;;;;;;;10.40;99.90;;;;;;2603555;54;20757;31
2022/11/10 02:00:01;;;;;;;;;;;10.40;99.90;;;;;;2603425;54;19935;31
2022/11/10 02:02:55;;;;;;;;;;;10.40;99.90;;;;;;2603489;54;20722;31
2022/11/10 02:05:48;;;;;;;;;;;10.40;99.90;;;;;;2603533;54;20373;31
2022/11/10 02:08:40;;;;;;;;;;;10.40;99.90;;;;;;2603480;54;20836;31
2022/11/10 02:11:31;;;;;;;;;;;10.40;99.90;;;;;;2603369;54;19934;31
2022/11/10 02:14:25;;;;;;;;;;;10.40;99.90;;;;;;2603502;54;20037;31
2022/11/10 02:17:19;;;;;;;;;;;10.40;99.90;;;;;;2701748;39;20273;31
2022/11/10 02:20:12;;;;;;;;;;;10.40;99.90;;;;;;2603474;54;20755;31
2022/11/10 02:23:15;;;;;;;;;;;10.40;99.90;;;;;;2603424;54;20749;31
2022/11/10 02:26:07;;;;;;;;;;;10.40;99.90;;;;;;2603451;54;20736;31
2022/11/10 02:28:59;;;;;;;;;;;10.40;99.90;;;;;;2603156;54;20781;31
2022/11/10 02:31:51;;;;;;;;;;;10.40;99.90;;;;;;2603304;54;19935;31
2022/11/10 02:34:43;;;;;;;;;;;10.40;99.90;;;;;;2603315;54;20768;31
2022/11/10 02:37:35;;;;;;;;;;;10.40;99.90;;;;;;2603377;54;19935;31
2022/11/10 02:40:30;;;;;;;;;;;10.40;99.90;;;;;;2701940;39;20304;31
2022/11/10 02:43:22;;;;;;;;;;;10.40;99.90;;;;;;2603353;54;19957;31
2022/11/10 02:46:15;;;;;;;;;;;10.40;99.90;;;;;;2603613;54;19941;31
2022/11/10 02:49:09;;;;;;;;;;;10.40;99.90;;;;;;2604001;54;20013;31
2022/11/10 02:52:01;;;;;;;;;;;10.40;99.90;;;;;;2604041;54;19938;31
2022/11/10 02:54:54;;;;;;;;;;;10.40;99.90;;;;;;2603966;54;19935;31
2022/11/10 02:57:48;;;;;;;;;;;10.40;99.90;;;;;;2603935;54;19946;31
2022/11/10 03:00:40;;;;;;;;;;;10.40;99.90;;;;;;2604125;54;19935;31
2022/11/10 03:03:33;;;;;;;;;;;10.40;99.90;;;;;;2604266;54;19937;31
2022/11/10 03:06:28;;;;;;;;;;;10.40;99.90;;;;;;2604005;54;19935;31
2022/11/10 03:09:20;;;;;;;;;;;10.40;99.90;;;;;;2603850;54;19942;31
2022/11/10 03:12:12;;;;;;;;;;;10.40;99.90;;;;;;2604114;54;19935;31
2022/11/10 03:15:11;;;;;;;;;;;10.40;99.90;;;;;;2603872;54;19946;31
2022/11/10 03:18:04;;;;;;;;;;;10.40;99.90;;;;;;2604011;54;19934;31
2022/11/10 03:20:56;;;;;;;;;;;10.40;99.90;;;;;;2603972;54;19934;31
2022/11/10 03:23:48;;;;;;;;;;;10.40;99.90;;;;;;2604010;54;20754;31
2022/11/10 03:26:40;;;;;;;;;;;10.40;99.90;;;;;;2603939;54;21150;31
2022/11/10 03:29:32;;;;;;;;;;;10.30;99.90;;;;;;2603840;54;20720;31
2022/11/10 03:32:27;;;;;;;;;;;10.40;99.90;;;;;;2603883;54;19941;31
2022/11/10 03:35:19;;;;;;;;;;;10.40;99.90;;;;;;2603801;54;20381;31
2022/11/10 03:38:12;;;;;;;;;;;10.40;99.90;;;;;;2603749;54;20826;31
2022/11/10 03:41:04;;;;;;;;;;;10.40;99.90;;;;;;2603917;54;20042;31
2022/11/10 03:44:10;;;;;;;;;;;10.40;99.90;;;;;;2603798;54;19935;31
2022/11/10 03:47:02;;;;;;;;;;;10.40;99.90;;;;;;2603860;54;20718;31
2022/11/10 03:49:57;;;;;;;;;;;10.40;99.90;;;;;;2603793;54;19938;31
2022/11/10 03:52:50;;;;;;;;;;;10.40;99.90;;;;;;2603865;54;19934;31
2022/11/10 03:55:41;;;;;;;;;;;10.40;99.90;;;;;;2604000;54;20738;31
2022/11/10 03:58:31;;;;;;;;;;;10.40;99.90;;;;;;2603690;54;20794;31
2022/11/10 04:01:22;;;;;;;;;;;10.30;99.90;;;;;;2603938;54;19935;31
2022/11/10 04:08:57;;;;;;;;;;;10.30;99.90;;;;;;2603795;54;20810;31
2022/11/10 04:10:32;;;;;;;;;;;10.30;99.90;;;;;;2603875;54;20823;31
2022/11/10 04:16:29;;;;;;;;;;;10.30;99.90;;;;;;2603717;54;19935;31
2022/11/10 04:19:21;;;;;;;;;;;10.30;99.90;;;;;;2603778;54;20768;31
2022/11/10 04:23:25;;;;;;;;;;;10.30;99.90;;;;;;2702654;39;20280;31
2022/11/10 04:25:29;;;;;;;;;;;10.30;99.90;;;;;;2603951;54;19934;31
2022/11/10 04:28:22;;;;;;;;;;;10.30;99.90;;;;;;2603810;54;20821;31
2022/11/10 04:31:12;;;;;;;;;;;10.30;99.90;;;;;;2603787;54;20812;31
2022/11/10 04:34:06;;;;;;;;;;;10.40;99.90;;;;;;2603848;54;19950;31
2022/11/10 04:36:56;;;;;;;;;;;10.30;99.90;;;;;;2603737;54;19934;31
2022/11/10 04:39:48;;;;;;;;;;;10.30;99.90;;;;;;2603899;54;20801;31
2022/11/10 04:42:43;;;;;;;;;;;10.30;99.90;;;;;;2603740;54;20828;31
2022/11/10 04:45:38;;;;;;;;;;;10.30;99.90;;;;;;2603829;54;19962;31
2022/11/10 04:48:31;;;;;;;;;;;10.30;99.90;;;;;;2603645;54;19934;31
2022/11/10 04:51:24;;;;;;;;;;;10.30;99.90;;;;;;2603789;54;20763;31
2022/11/10 04:54:17;;;;;;;;;;;10.30;99.90;;;;;;2603732;54;20725;31
2022/11/10 04:57:09;;;;;;;;;;;10.30;99.90;;;;;;2603661;54;20010;31
2022/11/10 05:00:02;;;;;;;;;;;10.30;99.90;;;;;;2603684;54;19939;31
2022/11/10 05:02:58;;;;;;;;;;;10.30;99.90;;;;;;2603637;54;19934;31
2022/11/10 05:05:48;;;;;;;;;;;10.30;99.90;;;;;;2603736;54;20051;31
2022/11/10 05:08:40;;;;;;;;;;;10.30;99.90;;;;;;2603512;54;20763;31
2022/11/10 05:11:34;;;;;;;;;;;10.30;99.90;;;;;;2603693;54;19942;31
2022/11/10 05:14:26;;;;;;;;;;;10.30;99.90;;;;;;2603491;54;20785;31
2022/11/10 05:17:19;;;;;;;;;;;10.30;99.90;;;;;;2603610;54;19934;31
2022/11/10 05:20:15;;;;;;;;;;;10.30;99.90;;;;;;2603493;54;19965;31
2022/11/10 05:26:14;;;;;;;;;;;10.30;99.90;;;;;;2603617;54;19943;31
2022/11/10 05:29:06;;;;;;;;;;;10.20;99.90;;;;;;2603552;54;19943;31
2022/11/10 05:31:59;;;;;;;;;;;10.20;99.90;;;;;;2603583;54;20710;31
2022/11/10 05:34:50;;;;;;;;;;;10.20;99.90;;;;;;2603580;54;20722;31
2022/11/10 05:37:41;;;;;;;;;;;10.20;99.90;;;;;;2603559;54;19934;31
2022/11/10 05:40:35;;;;;;;;;;;10.20;99.90;;;;;;2603638;54;19938;31
2022/11/10 05:43:28;;;;;;;;;;;10.20;99.90;;;;;;2603632;54;19935;31
2022/11/10 05:46:20;;;;;;;;;;;10.20;99.90;;;;;;2603464;54;19993;31
2022/11/10 05:49:13;;;;;;;;;;;10.10;99.90;;;;;;2603415;54;20768;31
2022/11/10 05:52:07;;;;;;;;;;;10.10;99.90;;;;;;2603445;54;20761;31
2022/11/10 05:54:57;;;;;;;;;;;10.10;99.90;;;;;;2603310;54;19934;31
2022/11/10 05:57:53;;;;;;;;;;;10.10;99.90;;;;;;2603452;54;19934;31
2022/11/10 06:00:45;;;;;;;;;;;10.10;99.90;;;;;;2603643;54;19993;31
2022/11/10 06:03:37;;;;;;;;;;;10.10;99.90;;;;;;2603336;54;19935;31
2022/11/10 06:06:30;;;;;;;;;;;10.00;99.90;;;;;;2603450;54;20773;31
2022/11/10 06:09:23;;;;;;;;;;;10.10;99.90;;;;;;2603406;54;20849;31
2022/11/10 06:12:15;;;;;;;;;;;10.10;99.90;;;;;;2603337;54;20013;31
2022/11/10 06:15:12;;;;;;;;;;;10.10;99.90;;;;;;2603518;54;19941;31
2022/11/10 06:18:10;;;;;;;;;;;10.10;99.90;;;;;;2603451;54;20745;31
2022/11/10 06:21:03;;;;;;;;;;;10.10;99.90;;;;;;2603536;54;19950;31
2022/11/10 06:26:50;;;;;;;;;;;10.10;99.90;;;;;;2603413;54;19970;31
2022/11/10 06:29:46;;;;;;;;;;;10.00;99.90;;;;;;2603410;54;19934;31
2022/11/10 06:32:43;;;;;;;;;;;10.00;99.90;;;;;;2603428;54;19935;31
2022/11/10 06:35:36;;;;;;;;;;;10.00;99.90;;;;;;2603425;54;20722;31
2022/11/10 06:38:30;;;;;;;;;;;10.00;99.90;;;;;;2603248;54;20729;31
2022/11/10 06:41:22;;;;;;;;;;;10.00;99.90;;;;;;2603313;54;19938;31
2022/11/10 06:44:17;;;;;;;;;;;9.90;99.90;;;;;;2603059;54;19996;31
2022/11/10 06:47:09;;;;;;;;;;;9.90;99.90;;;;;;2603054;54;20783;31
2022/11/10 06:50:03;;;;;;;;;;;9.90;99.90;;;;;;2603184;54;20007;31
2022/11/10 06:52:58;;;;;;;;;;;9.90;99.90;;;;;;2603408;54;20744;31
2022/11/10 06:58:39;;;;;;;;;;;9.90;99.90;;;;;;2603315;54;20740;31
2022/11/10 07:01:31;;;;;;;;;;;9.90;99.90;;;;;;2603374;54;19997;31
2022/11/10 07:04:25;;;;;;;;;;;9.90;99.90;;;;;;2603286;54;20825;31
2022/11/10 07:07:18;;;;;;;;;;;9.90;99.90;;;;;;2603325;54;20065;31
2022/11/10 07:10:11;;;;;;;;;;;9.90;99.90;;;;;;2602932;54;20878;31
2022/11/10 07:13:04;;;;;;;;;;;10.00;99.90;;;;;;2603174;54;19957;31
2022/11/10 07:15:57;;;;;;;;;;;9.90;99.90;;;;;;2603165;54;20762;31
2022/11/10 07:18:50;;;;;;;;;;;9.90;99.90;;;;;;2603148;54;19942;31
2022/11/10 07:21:42;;;;;;;;;;;9.90;99.90;;;;;;2603066;54;19969;31
2022/11/10 07:24:37;;;;;;;;;;;9.90;99.90;;;;;;2603280;54;20014;31
2022/11/10 07:27:29;;;;;;;;;;;9.90;99.90;;;;;;2603197;54;19965;31
2022/11/10 07:30:22;;;;;;;;;;;10.00;99.90;;;;;;2603008;54;20043;31
2022/11/10 07:33:15;;;;;;;;;;;10.00;99.90;;;;;;2603778;54;20743;31
2022/11/10 07:36:08;;;;;;;;;;;10.00;99.90;;;;;;2603964;54;19935;31
2022/11/10 07:39:00;;;;;;;;;;;10.00;99.90;;;;;;2603964;54;20795;31
2022/11/10 07:41:56;;;;;;;;;;;10.00;99.90;;;;;;2604053;54;20747;31
2022/11/10 07:44:48;;;;;;;;;;;10.00;99.90;;;;;;2603920;54;19934;31
2022/11/10 07:47:41;;;;;;;;;;;10.00;99.90;;;;;;2603930;54;19939;31
2022/11/10 07:50:34;;;;;;;;;;;10.00;99.90;;;;;;2603896;54;19934;31
2022/11/10 07:53:27;;;;;;;;;;;10.00;99.90;;;;;;2603981;54;20874;31
2022/11/10 07:56:21;;;;;;;;;;;10.00;99.90;;;;;;2603806;54;20854;31
2022/11/10 07:59:18;;;;;;;;;;;10.00;99.90;;;;;;2603973;54;19938;31
2022/11/10 08:02:11;;;;;;;;;;;10.00;99.90;;;;;;2603880;54;20435;31
2022/11/10 08:05:04;;;;;;;;;;;10.00;99.90;;;;;;2603907;54;19962;31
2022/11/10 08:07:56;;;;;;;;;;;10.10;99.90;;;;;;2603785;54;20767;31
2022/11/10 08:10:49;;;;;;;;;;;10.10;99.90;;;;;;2603576;54;19938;31
2022/11/10 08:13:42;;;;;;;;;;;10.10;99.90;;;;;;2603936;54;20844;31
2022/11/10 08:16:38;;;;;;;;;;;10.20;99.90;;;;;;2702476;39;21356;31
2022/11/10 08:19:32;;;;;;;;;;;10.30;99.90;;;;;;2603850;54;19935;31
2022/11/10 08:22:24;;;;;;;;;;;10.40;99.90;;;;;;2603773;54;19997;31
2022/11/10 08:25:16;;;;;;;;;;;10.90;99.90;;;;;;2603965;54;20762;31
2022/11/10 08:28:10;;;;;;;;;;;11.50;99.90;;;;;;2603832;54;19965;31
2022/11/10 08:31:03;;;;;;;;;;;11.90;99.90;;;;;;2603796;54;20337;31
2022/11/10 08:33:58;;;;;;;;;;;12.10;99.90;;;;;;2603776;54;19961;31
2022/11/10 08:36:50;;;;;;;;;;;12.20;99.90;;;;;;2603734;54;20773;31
2022/11/10 08:39:43;;;;;;;;;;;12.20;99.90;;;;;;2603713;54;19935;31
2022/11/10 08:42:36;;;;;;;;;;;12.20;99.90;;;;;;2603483;54;19934;31
2022/11/10 08:45:27;;;;;;;;;;;12.20;99.90;;;;;;2603782;54;19943;31
2022/11/10 08:48:20;;;;;;;;;;;12.20;99.90;;;;;;2603715;54;19934;31
2022/11/10 08:51:15;;;;;;;;;;;12.40;99.90;;;;;;2603825;54;19934;31
2022/11/10 08:54:08;;;;;;;;;;;12.50;99.90;;;;;;2603572;54;20702;31
2022/11/10 08:57:01;;;;;;;;;;;12.90;99.90;;;;;;2603870;54;20078;31
2022/11/10 08:59:53;;;;;;;;;;;13.30;99.90;;;;;;2603642;54;19934;31
2022/11/10 09:02:47;;;;;;;;;;;13.80;99.90;;;;;;2603726;54;19989;31
2022/11/10 09:05:38;;;;;;;;;;;14.20;99.90;;;;;;2603679;54;19935;31
2022/11/10 09:08:33;;;;;;;;;;;14.60;99.90;;;;;;2603720;54;19935;31
2022/11/10 09:11:27;;;;;;;;;;;14.90;99.90;;;;;;2603514;54;20070;31
2022/11/10 09:14:20;;;;;;;;;;;15.00;99.90;;;;;;2603609;54;20788;31
2022/11/10 09:17:11;;;;;;;;;;;15.20;99.90;;;;;;2603579;54;19935;31
2022/11/10 09:20:04;;;;;;;;;;;15.20;99.90;;;;;;2603599;54;19936;31
2022/11/10 09:22:57;;;;;;;;;;;15.40;99.90;;;;;;2603412;54;20829;31
2022/11/10 09:25:53;;;;;;;;;;;15.60;99.90;;;;;;2603555;54;20786;31
2022/11/10 09:28:45;;;;;;;;;;;15.70;99.90;;;;;;2603646;54;20745;31
2022/11/10 09:31:38;;;;;;;;;;;15.70;99.90;;;;;;2702253;39;20395;31
2022/11/10 09:34:30;;;;;;;;;;;15.90;99.90;;;;;;2603541;54;19938;31
2022/11/10 09:37:23;;;;;;;;;;;15.70;99.90;;;;;;2603547;54;19935;31
2022/11/10 09:40:14;;;;;;;;;;;15.60;99.90;;;;;;2603588;54;19938;31
2022/11/10 09:43:08;;;;;;;;;;;15.60;99.90;;;;;;2603512;54;20842;31
2022/11/10 09:46:02;;;;;;;;;;;15.70;99.90;;;;;;2603590;54;20045;31
2022/11/10 09:48:55;;;;;;;;;;;15.80;99.90;;;;;;2603739;54;19934;31
2022/11/10 09:51:48;;;;;;;;;;;16.00;99.90;;;;;;2603635;54;20717;31
2022/11/10 09:54:41;;;;;;;;;;;16.00;99.90;;;;;;2603313;54;19982;31
2022/11/10 09:57:32;;;;;;;;;;;16.10;99.90;;;;;;2603515;54;19938;31
2022/11/10 10:00:28;;;;;;;;;;;16.00;99.90;;;;;;2603679;54;20726;31
2022/11/10 10:03:23;;;;;;;;;;;16.00;99.90;;;;;;2603599;54;19934;31
2022/11/10 10:06:16;;;;;;;;;;;16.10;99.90;;;;;;2603458;54;19934;31
2022/11/10 10:09:11;;;;;;;;;;;16.00;99.90;;;;;;2603662;54;20034;31
2022/11/10 10:12:08;;;;;;;;;;;16.00;99.90;;;;;;2603392;54;19942;31
2022/11/10 10:15:04;;;;;;;;;;;15.90;99.90;;;;;;2603579;54;19934;31
2022/11/10 10:18:05;;;;;;;;;;;15.80;99.90;;;;;;2603532;54;20758;31
2022/11/10 10:21:07;;;;;;;;;;;15.80;99.90;;;;;;2603420;54;20707;31
2022/11/10 10:24:01;;;;;;;;;;;15.80;99.90;;;;;;2603388;54;19934;31
2022/11/10 10:27:01;;;;;;;;;;;15.90;99.90;;;;;;2603402;54;19935;31
2022/11/10 10:29:54;;;;;;;;;;;15.80;99.90;;;;;;2603396;54;19934;31
2022/11/10 10:32:47;;;;;;;;;;;15.70;99.90;;;;;;2603353;54;19942;31
2022/11/10 10:35:43;;;;;;;;;;;15.50;99.90;;;;;;2603532;54;19997;31
2022/11/10 10:38:35;;;;;;;;;;;15.30;99.90;;;;;;2603377;54;19935;31
2022/11/10 10:41:28;;;;;;;;;;;15.00;99.90;;;;;;2603197;54;19963;31
2022/11/10 10:44:21;;;;;;;;;;;14.70;99.90;;;;;;2603431;54;19962;31
2022/11/10 10:47:14;;;;;;;;;;;14.70;99.90;;;;;;2603488;54;20743;31
2022/11/10 10:50:24;;;;;;;;;;;14.50;99.90;;;;;;2603331;54;20839;31
2022/11/10 10:53:21;;;;;;;;;;;14.30;99.90;;;;;;2603256;54;19997;31
2022/11/10 10:56:16;;;;;;;;;;;14.10;99.90;;;;;;2603365;54;20718;31
2022/11/10 10:59:11;;;;;;;;;;;14.00;99.90;;;;;;2603265;54;19934;31
2022/11/10 11:02:04;;;;;;;;;;;13.90;99.90;;;;;;2603454;54;20777;31
2022/11/10 11:05:10;;;;;;;;;;;13.90;99.90;;;;;;2603289;54;19941;31
2022/11/10 11:08:03;;;;;;;;;;;13.80;99.90;;;;;;2604042;54;19981;31
2022/11/10 11:10:59;;;;;;;;;;;13.70;99.90;;;;;;2604795;54;19931;31
2022/11/10 11:13:51;;;;;;;;;;;13.60;99.90;;;;;;2603786;54;20889;31
2022/11/10 11:16:50;;;;;;;;;;;13.50;99.90;;;;;;2604210;54;19935;31
2022/11/10 11:19:43;;;;;;;;;;;13.50;99.90;;;;;;2604124;54;20779;31
2022/11/10 11:22:44;;;;;;;;;;;13.40;99.90;;;;;;2604013;54;19997;31
2022/11/10 11:25:38;;;;;;;;;;;13.40;99.90;;;;;;2604013;54;19947;31
2022/11/10 11:28:35;;;;;;;;;;;13.30;99.90;;;;;;2604019;54;20799;31
2022/11/10 11:34:18;;;;;;;;;;;13.20;99.90;;;;;;2603945;54;19935;31
2022/11/10 11:37:13;;;;;;;;;;;13.10;99.90;;;;;;2603794;54;19934;31
2022/11/10 11:40:16;;;;;;;;;;;13.10;99.90;;;;;;2603850;54;19939;31
2022/11/10 11:43:10;;;;;;;;;;;13.10;99.90;;;;;;2604054;54;19935;31
2022/11/10 11:46:05;;;;;;;;;;;13.00;99.90;;;;;;2603999;54;20782;31
2022/11/10 11:49:01;;;;;;;;;;;13.00;99.90;;;;;;2603976;54;20022;31
2022/11/10 11:51:54;;;;;;;;;;;12.90;99.90;;;;;;2603763;54;20803;31
2022/11/10 11:54:54;;;;;;;;;;;12.90;99.90;;;;;;2702488;39;20292;31
2022/11/10 11:57:51;;;;;;;;;;;12.90;99.90;;;;;;2604003;54;19934;31
2022/11/10 12:00:45;;;;;;;;;;;12.90;99.90;;;;;;2603946;54;19934;31
2022/11/10 12:03:52;;;;;;;;;;;12.80;99.90;;;;;;2603945;54;19938;31
2022/11/10 12:06:52;;;;;;;;;;;12.80;99.90;;;;;;2603969;54;20798;31
2022/11/10 12:09:45;;;;;;;;;;;12.90;99.90;;;;;;2604052;54;20840;31
2022/11/10 12:12:38;;;;;;;;;;;13.00;99.90;;;;;;2603858;54;20020;31
2022/11/10 12:15:32;;;;;;;;;;;13.00;99.90;;;;;;2604033;54;19994;31
2022/11/10 12:18:28;;;;;;;;;;;13.10;99.90;;;;;;2603914;54;19956;31
2022/11/10 12:21:24;;;;;;;;;;;13.20;99.90;;;;;;2603788;54;19935;31
2022/11/10 12:24:31;;;;;;;;;;;13.30;99.90;;;;;;2604018;54;19938;31
2022/11/10 12:27:27;;;;;;;;;;;13.30;99.90;;;;;;2603824;54;19934;31
2022/11/10 12:30:20;;;;;;;;;;;13.40;99.90;;;;;;2604015;54;19935;31
2022/11/10 12:33:16;;;;;;;;;;;13.50;99.90;;;;;;2603790;54;19958;31
2022/11/10 12:36:10;;;;;;;;;;;13.60;99.90;;;;;;2603967;54;20820;31
2022/11/10 12:39:05;;;;;;;;;;;13.60;99.90;;;;;;2603812;54;19934;31
2022/11/10 12:41:59;;;;;;;;;;;13.70;99.90;;;;;;2603888;54;19935;31
2022/11/10 12:44:59;;;;;;;;;;;13.80;99.90;;;;;;2603720;54;19942;31
2022/11/10 12:47:52;;;;;;;;;;;13.80;99.90;;;;;;2603937;54;19957;31
2022/11/10 12:50:46;;;;;;;;;;;13.90;99.90;;;;;;2603607;54;19970;31
2022/11/10 12:53:40;;;;;;;;;;;13.90;99.90;;;;;;2603813;54;20810;31
2022/11/10 12:56:32;;;;;;;;;;;14.00;99.90;;;;;;2603815;54;20816;31
2022/11/10 12:59:26;;;;;;;;;;;14.00;99.90;;;;;;2603807;54;19942;31
2022/11/10 13:02:23;;;;;;;;;;;14.10;99.90;;;;;;2603806;54;19935;31
2022/11/10 13:05:23;;;;;;;;;;;14.10;99.90;;;;;;2603792;54;20815;31
2022/11/10 13:08:20;;;;;;;;;;;14.10;99.90;;;;;;2603656;54;19997;31
2022/11/10 13:11:22;;;;;;;;;;;14.10;99.90;;;;;;2603753;54;19985;31
2022/11/10 13:14:21;;;;;;;;;;;14.10;99.90;;;;;;2603583;54;20811;31
2022/11/10 13:20:06;;;;;;;;;;;14.00;99.90;;;;;;2603710;54;19938;31
2022/11/10 13:23:22;;;;;;;;;;;13.90;99.90;;;;;;2603794;54;19935;31
2022/11/10 13:26:42;;;;;;;;;;;13.90;99.90;;;;;;2603591;54;20750;31
2022/11/10 13:29:36;;;;;;;;;;;13.80;99.90;;;;;;2603468;54;19940;31
2022/11/10 13:32:29;;;;;;;;;;;13.80;99.90;;;;;;2603472;54;19938;31
2022/11/10 13:35:37;;;;;;;;;;;13.70;99.90;;;;;;2603672;54;20726;31
2022/11/10 13:38:39;;;;;;;;;;;13.70;99.90;;;;;;2603621;54;20796;31
2022/11/10 13:41:32;;;;;;;;;;;13.60;99.90;;;;;;2603756;54;19935;31
2022/11/10 13:44:28;;;;;;;;;;;13.60;99.90;;;;;;2603493;54;20766;31
2022/11/10 13:47:33;;;;;;;;;;;13.60;99.90;;;;;;2603615;54;19989;31
2022/11/10 13:50:28;;;;;;;;;;;13.50;99.90;;;;;;2603493;54;20776;31
2022/11/10 13:53:23;;;;;;;;;;;13.50;99.90;;;;;;2603554;54;20719;31
2022/11/10 13:56:20;;;;;;;;;;;13.50;99.90;;;;;;2603505;54;20799;31
2022/11/10 13:59:17;;;;;;;;;;;13.40;99.90;;;;;;2603493;54;20742;31
2022/11/10 14:02:24;;;;;;;;;;;13.40;99.90;;;;;;2603466;54;20797;31
2022/11/10 14:05:36;;;;;;;;;;;13.30;99.90;;;;;;2603052;54;20799;31
2022/11/10 14:08:29;;;;;;;;;;;13.30;99.90;;;;;;2603543;54;19938;31
2022/11/10 14:11:27;;;;;;;;;;;13.20;99.90;;;;;;2603566;54;19942;31
2022/11/10 14:14:20;;;;;;;;;;;13.30;99.90;;;;;;2603479;54;19997;31
2022/11/10 14:20:06;;;;;;;;;;;13.20;99.90;;;;;;2603530;54;19942;31
2022/11/10 14:22:59;;;;;;;;;;;13.20;99.90;;;;;;2603526;54;19942;31
2022/11/10 14:25:54;;;;;;;;;;;13.10;99.90;;;;;;2603349;54;20001;31
2022/11/10 14:28:50;;;;;;;;;;;13.10;99.90;;;;;;2603418;54;19942;31
2022/11/10 14:31:45;;;;;;;;;;;13.10;99.90;;;;;;2603423;54;19940;31
2022/11/10 14:34:43;;;;;;;;;;;13.00;99.90;;;;;;2603327;54;19942;31
2022/11/10 14:37:38;;;;;;;;;;;12.90;99.90;;;;;;2603353;54;20777;31
2022/11/10 14:40:31;;;;;;;;;;;12.90;99.90;;;;;;2603376;54;20730;31
2022/11/10 14:43:29;;;;;;;;;;;12.80;99.90;;;;;;2604368;54;20809;31
2022/11/10 14:46:25;;;;;;;;;;;12.70;99.90;;;;;;2604229;54;19989;31
2022/11/10 14:49:22;;;;;;;;;;;12.70;99.90;;;;;;2604194;54;19939;31
2022/11/10 14:52:16;;;;;;;;;;;12.70;99.90;;;;;;2604050;54;19938;31
2022/11/10 14:55:11;;;;;;;;;;;12.60;99.90;;;;;;2602611;54;20795;31
2022/11/10 14:58:05;;;;;;;;;;;12.80;99.90;;;;;;2603969;54;20840;31
2022/11/10 15:00:58;;;;;;;;;;;12.80;99.90;;;;;;2604240;54;19943;31
2022/11/10 15:03:53;;;;;;;;;;;12.80;99.90;;;;;;2603757;54;19938;31
2022/11/10 15:06:46;;;;;;;;;;;12.70;99.90;;;;;;2603735;54;20747;31
2022/11/10 15:09:38;;;;;;;;;;;12.60;99.90;;;;;;2603760;54;20886;31
2022/11/10 15:12:32;;;;;;;;;;;12.60;99.90;;;;;;2603840;54;20791;31
2022/11/10 15:15:30;;;;;;;;;;;12.50;99.90;;;;;;2604076;39;21159;31
2022/11/10 15:18:27;;;;;;;;;;;12.40;99.90;;;;;;2603427;54;20804;31
2022/11/10 15:21:24;;;;;;;;;;;12.30;99.90;;;;;;2603911;54;19954;31
2022/11/10 15:24:16;;;;;;;;;;;12.30;99.90;;;;;;2603784;54;20027;31
2022/11/10 15:27:11;;;;;;;;;;;12.30;99.90;;;;;;2604243;54;20792;31
2022/11/10 15:30:04;;;;;;;;;;;12.20;99.90;;;;;;2604083;54;19997;31
2022/11/10 15:32:57;;;;;;;;;;;12.10;99.90;;;;;;2604142;54;20767;31
2022/11/10 15:35:53;;;;;;;;;;;12.10;99.90;;;;;;2603950;54;20735;31
2022/11/10 15:38:44;;;;;;;;;;;12.00;99.90;;;;;;2604049;54;20758;31
2022/11/10 15:41:37;;;;;;;;;;;12.00;99.90;;;;;;2702823;39;20902;31
2022/11/10 15:44:29;;;;;;;;;;;12.00;99.90;;;;;;2604066;54;20371;31
2022/11/10 15:47:21;;;;;;;;;;;11.90;99.90;;;;;;2604004;54;19934;31
2022/11/10 15:50:13;;;;;;;;;;;11.90;99.90;;;;;;2604096;54;20453;31
2022/11/10 15:53:05;;;;;;;;;;;11.80;99.90;;;;;;2603829;54;20781;31
2022/11/10 15:55:58;;;;;;;;;;;11.80;99.90;;;;;;2603979;54;20782;31
2022/11/10 15:58:52;;;;;;;;;;;11.70;99.90;;;;;;2702525;39;20345;31
2022/11/10 16:01:53;;;;;;;;;;;11.70;99.90;;;;;;2603993;54;19942;31
2022/11/10 16:04:45;;;;;;;;;;;11.60;99.90;;;;;;2604014;54;19956;31
2022/11/10 16:07:36;;;;;;;;;;;11.60;99.90;;;;;;2702449;39;20362;31
2022/11/10 16:10:29;;;;;;;;;;;11.60;99.90;;;;;;2603926;54;19997;31
2022/11/10 16:13:22;;;;;;;;;;;11.50;99.90;;;;;;2603907;54;19938;31
2022/11/10 16:16:15;;;;;;;;;;;11.50;99.90;;;;;;2603480;54;20706;31
2022/11/10 16:19:10;;;;;;;;;;;11.40;99.90;;;;;;2603965;54;19935;31
2022/11/10 16:22:03;;;;;;;;;;;11.40;99.90;;;;;;2603863;54;19934;31
2022/11/10 16:24:55;;;;;;;;;;;11.30;99.90;;;;;;2603805;54;19943;31
2022/11/10 16:27:48;;;;;;;;;;;11.30;99.90;;;;;;2603462;54;20797;31
2022/11/10 16:30:41;;;;;;;;;;;11.20;99.90;;;;;;2603723;54;19938;31
2022/11/10 16:33:33;;;;;;;;;;;11.20;99.90;;;;;;2603725;54;20316;31
2022/11/10 16:36:28;;;;;;;;;;;11.20;99.90;;;;;;2603468;54;20706;31
2022/11/10 16:39:24;;;;;;;;;;;11.10;99.90;;;;;;2604476;39;20219;31
2022/11/10 16:42:15;;;;;;;;;;;11.00;99.90;;;;;;2603930;54;19935;31
2022/11/10 16:45:11;;;;;;;;;;;11.00;99.90;;;;;;2603811;54;19942;31
2022/11/10 16:48:04;;;;;;;;;;;11.00;99.90;;;;;;2603747;54;20822;31
2022/11/10 16:50:57;;;;;;;;;;;11.00;99.90;;;;;;2603810;54;19934;31
2022/11/10 16:53:52;;;;;;;;;;;10.90;99.90;;;;;;2603775;54;19993;31
2022/11/10 16:56:44;;;;;;;;;;;10.90;99.90;;;;;;2603709;54;19934;31
2022/11/10 16:59:37;;;;;;;;;;;10.80;99.90;;;;;;2603484;54;19934;31
2022/11/10 17:02:30;;;;;;;;;;;10.80;99.90;;;;;;2603743;54;19935;31
2022/11/10 17:05:22;;;;;;;;;;;10.70;99.90;;;;;;2603300;54;19993;31
2022/11/10 17:08:17;;;;;;;;;;;10.70;99.90;;;;;;2702501;39;20938;31
2022/11/10 17:11:12;;;;;;;;;;;10.60;99.90;;;;;;2603650;54;19938;31
2022/11/10 17:14:05;;;;;;;;;;;10.60;99.90;;;;;;2603877;54;20001;31
2022/11/10 17:16:57;;;;;;;;;;;10.60;99.90;;;;;;2773718;31;21437;31
2022/11/10 17:19:50;;;;;;;;;;;10.60;99.90;;;;;;2603776;54;19935;31
2022/11/10 17:22:42;;;;;;;;;;;10.50;99.90;;;;;;2603687;54;20714;31
2022/11/10 17:25:34;;;;;;;;;;;10.50;99.90;;;;;;2603764;54;20743;31
2022/11/10 17:28:29;;;;;;;;;;;10.40;99.90;;;;;;2603740;54;20787;31
2022/11/10 17:31:19;;;;;;;;;;;10.40;99.90;;;;;;2603445;54;19939;31
2022/11/10 17:34:11;;;;;;;;;;;10.40;99.90;;;;;;2603593;54;20805;31
2022/11/10 17:37:05;;;;;;;;;;;10.40;99.90;;;;;;2603501;54;20795;31
2022/11/10 17:39:57;;;;;;;;;;;10.30;99.90;;;;;;2603567;54;19957;31